createdAt,value
2023-04-09T00:00:36.330Z,23.30
2023-04-09T00:03:24.417Z,25.00
2023-04-09T00:05:52.581Z,26.30
2023-04-09T00:08:20.857Z,25.10
2023-04-09T00:10:48.882Z,26.10
2023-04-09T00:13:22.753Z,26.10
2023-04-09T00:15:56.597Z,25.60
2023-04-09T00:18:24.660Z,23.40
2023-04-09T00:20:52.656Z,24.40
2023-04-09T00:23:20.900Z,24.00
2023-04-09T00:25:49.005Z,24.70
2023-04-09T00:28:17.269Z,23.10
2023-04-09T00:30:45.827Z,23.60
2023-04-09T00:33:13.841Z,21.40
2023-04-09T00:35:41.860Z,22.20
2023-04-09T00:38:10.012Z,23.10
2023-04-09T00:40:38.157Z,22.60
2023-04-09T00:43:06.904Z,23.60
2023-04-09T00:45:35.127Z,23.10
2023-04-09T00:48:03.374Z,22.60
2023-04-09T00:50:31.475Z,23.20
2023-04-09T00:52:59.611Z,22.70
2023-04-09T00:55:29.339Z,22.00
2023-04-09T00:57:57.992Z,22.70
2023-04-09T01:00:27.848Z,21.60
2023-04-09T01:02:57.822Z,22.10
2023-04-09T01:05:34.457Z,22.00
2023-04-09T01:08:19.548Z,21.90
2023-04-09T01:10:53.961Z,22.90
2023-04-09T01:13:39.900Z,21.00
2023-04-09T01:16:13.164Z,22.50
2023-04-09T01:18:59.549Z,23.30
2023-04-09T01:21:32.671Z,22.00
2023-04-09T01:24:19.753Z,22.90
2023-04-09T01:27:08.235Z,22.10
2023-04-09T01:29:51.646Z,23.90
2023-04-09T01:32:21.684Z,22.60
2023-04-09T01:34:51.064Z,23.10
2023-04-09T01:37:20.664Z,22.10
2023-04-09T01:39:48.774Z,23.40
2023-04-09T01:42:17.936Z,23.20
2023-04-09T01:44:47.308Z,24.00
2023-04-09T01:47:15.935Z,24.80
2023-04-09T01:49:44.999Z,28.00
2023-04-09T01:52:13.542Z,25.30
2023-04-09T01:54:43.301Z,26.70
2023-04-09T01:57:11.357Z,28.30
2023-04-09T01:59:39.303Z,27.90
2023-04-09T02:02:13.470Z,27.50
2023-04-09T02:04:46.842Z,27.40
2023-04-09T02:07:20.856Z,25.90
2023-04-09T02:09:49.623Z,26.40
2023-04-09T02:12:19.500Z,25.60
2023-04-09T02:14:50.644Z,26.20
2023-04-09T02:17:19.557Z,27.80
2023-04-09T02:19:48.818Z,26.30
2023-04-09T02:22:17.364Z,27.00
2023-04-09T02:24:46.973Z,27.00
2023-04-09T02:27:15.014Z,26.70
2023-04-09T02:29:43.716Z,26.60
2023-04-09T02:32:13.641Z,27.40
2023-04-09T02:34:42.589Z,26.30
2023-04-09T02:37:10.763Z,27.30
2023-04-09T02:39:38.788Z,26.70
2023-04-09T02:42:07.995Z,24.80
2023-04-09T02:44:36.266Z,26.90
2023-04-09T02:47:04.290Z,25.80
2023-04-09T02:49:32.830Z,27.10
2023-04-09T02:52:00.833Z,26.60
2023-04-09T02:54:28.925Z,27.10
2023-04-09T02:56:56.876Z,29.50
2023-04-09T02:59:24.810Z,30.50
2023-04-09T03:01:53.071Z,29.60
2023-04-09T03:04:21.354Z,28.40
2023-04-09T03:06:51.686Z,28.10
2023-04-09T03:09:19.699Z,26.70
2023-04-09T03:11:47.704Z,27.00
2023-04-09T03:14:16.016Z,25.90
2023-04-09T03:16:45.908Z,26.50
2023-04-09T03:19:13.879Z,27.40
2023-04-09T03:21:42.848Z,27.20
2023-04-09T03:24:11.594Z,26.70
2023-04-09T03:26:40.523Z,28.10
2023-04-09T03:29:08.658Z,28.30
2023-04-09T03:31:36.688Z,28.10
2023-04-09T03:34:04.668Z,27.40
2023-04-09T03:36:33.514Z,26.40
2023-04-09T03:39:08.692Z,26.70
2023-04-09T03:41:39.252Z,26.10
2023-04-09T03:44:10.737Z,24.80
2023-04-09T03:47:00.836Z,23.80
2023-04-09T03:49:29.180Z,27.00
2023-04-09T03:52:01.145Z,26.70
2023-04-09T03:54:36.701Z,22.90
2023-04-09T03:59:37.160Z,20.90
2023-04-09T04:02:05.082Z,21.20
2023-04-09T04:04:34.019Z,22.90
2023-04-09T04:07:03.845Z,22.20
2023-04-09T04:09:37.523Z,21.60
2023-04-09T04:12:09.791Z,21.70
2023-04-09T04:15:13.486Z,21.50
2023-04-09T04:17:46.305Z,22.70
2023-04-09T04:20:21.352Z,21.70
2023-04-09T04:23:00.407Z,21.40
2023-04-09T04:25:28.819Z,20.00
2023-04-09T04:27:57.594Z,20.50
2023-04-09T04:30:30.805Z,19.10
2023-04-09T04:33:02.643Z,19.10
2023-04-09T04:35:35.581Z,18.90
2023-04-09T04:38:05.121Z,17.20
2023-04-09T04:40:35.682Z,19.00
2023-04-09T04:43:04.064Z,19.40
2023-04-09T04:45:32.261Z,20.10
2023-04-09T04:48:05.982Z,18.90
2023-04-09T04:50:34.102Z,23.90
2023-04-09T04:53:05.482Z,21.80
2023-04-09T04:55:41.577Z,22.40
2023-04-09T04:58:12.429Z,23.60
2023-04-09T05:00:46.314Z,24.40
2023-04-09T05:03:15.460Z,25.60
2023-04-09T05:05:57.312Z,24.20
2023-04-09T05:08:27.924Z,25.10
2023-04-09T05:10:57.070Z,22.90
2023-04-09T05:13:30.898Z,23.40
2023-04-09T05:15:58.996Z,21.40
2023-04-09T05:18:27.152Z,22.10
2023-04-09T05:20:55.198Z,23.10
2023-04-09T05:23:23.550Z,21.50
2023-04-09T05:25:51.705Z,23.00
2023-04-09T05:28:25.569Z,22.40
2023-04-09T05:31:02.685Z,20.90
2023-04-09T05:36:14.634Z,19.80
2023-04-09T05:38:43.807Z,19.40
2023-04-09T05:41:11.824Z,26.40
2023-04-09T05:43:46.394Z,16.80
2023-04-09T05:46:14.549Z,16.30
2023-04-09T05:48:45.207Z,16.90
2023-04-09T05:51:13.303Z,16.60
2023-04-09T05:53:41.441Z,16.70
2023-04-09T05:56:16.251Z,17.10
2023-04-09T05:58:53.022Z,17.50
2023-04-09T06:01:21.321Z,18.40
2023-04-09T06:03:50.835Z,17.30
2023-04-09T06:06:19.273Z,17.20
2023-04-09T06:08:47.353Z,19.00
2023-04-09T06:11:15.649Z,18.40
2023-04-09T06:13:43.677Z,19.40
2023-04-09T06:16:11.712Z,21.40
2023-04-09T06:18:39.972Z,18.50
2023-04-09T06:21:09.581Z,18.60
2023-04-09T06:23:37.678Z,18.50
2023-04-09T06:26:05.655Z,18.40
2023-04-09T06:28:36.565Z,18.60
2023-04-09T06:31:04.499Z,18.90
2023-04-09T06:33:32.442Z,18.20
2023-04-09T06:36:00.826Z,18.90
2023-04-09T06:38:28.894Z,20.30
2023-04-09T06:40:57.862Z,19.60
2023-04-09T06:43:26.021Z,20.30
2023-04-09T06:45:54.212Z,20.70
2023-04-09T06:48:22.240Z,21.10
2023-04-09T06:50:50.529Z,23.30
2023-04-09T06:53:18.540Z,20.50
2023-04-09T06:55:46.709Z,21.50
2023-04-09T06:58:14.801Z,20.40
2023-04-09T07:00:43.029Z,27.10
2023-04-09T07:03:11.514Z,22.00
2023-04-09T07:05:39.604Z,20.00
2023-04-09T07:08:08.078Z,18.70
2023-04-09T07:10:36.286Z,18.30
2023-04-09T07:13:04.326Z,18.30
2023-04-09T07:15:32.791Z,18.10
2023-04-09T07:18:00.808Z,17.10
2023-04-09T07:20:28.924Z,18.10
2023-04-09T07:22:56.960Z,18.20
2023-04-09T07:25:24.922Z,18.30
2023-04-09T07:27:53.124Z,17.10
2023-04-09T07:30:21.098Z,17.20
2023-04-09T07:32:49.293Z,17.70
2023-04-09T07:35:18.734Z,17.50
2023-04-09T07:37:46.889Z,18.40
2023-04-09T07:40:15.163Z,19.10
2023-04-09T07:42:43.131Z,19.70
2023-04-09T07:45:11.295Z,20.00
2023-04-09T07:47:41.394Z,20.00
2023-04-09T07:50:10.790Z,20.60
2023-04-09T07:52:38.828Z,20.50
2023-04-09T07:55:07.007Z,21.20
2023-04-09T07:57:35.020Z,22.40
2023-04-09T08:00:03.955Z,22.90
2023-04-09T08:02:41.254Z,20.90
2023-04-09T08:05:09.927Z,20.20
2023-04-09T08:07:38.297Z,19.90
2023-04-09T08:10:07.046Z,21.70
2023-04-09T08:12:34.900Z,20.80
2023-04-09T08:15:03.895Z,19.50
2023-04-09T08:17:31.955Z,20.50
2023-04-09T08:19:59.993Z,19.80
2023-04-09T08:22:28.011Z,19.10
2023-04-09T08:24:57.520Z,18.60
2023-04-09T08:27:25.669Z,17.70
2023-04-09T08:29:53.834Z,17.30
2023-04-09T08:32:22.331Z,18.50
2023-04-09T08:34:50.324Z,16.90
2023-04-09T08:37:18.639Z,15.80
2023-04-09T08:39:46.670Z,17.30
2023-04-09T08:42:16.225Z,17.20
2023-04-09T08:44:44.268Z,17.20
2023-04-09T08:47:12.703Z,16.50
2023-04-09T08:49:41.472Z,16.60
2023-04-09T08:52:09.836Z,14.60
2023-04-09T08:54:37.896Z,15.30
2023-04-09T08:57:06.585Z,15.70
2023-04-09T08:59:38.040Z,20.40
2023-04-09T09:02:11.560Z,15.30
2023-04-09T09:04:50.940Z,15.00
2023-04-09T09:07:18.880Z,13.30
2023-04-09T09:09:58.975Z,13.70
2023-04-09T09:12:35.434Z,13.00
2023-04-09T09:15:03.953Z,13.20
2023-04-09T09:17:32.443Z,10.60
2023-04-09T09:20:20.759Z,11.20
2023-04-09T09:22:54.841Z,10.80
2023-04-09T09:25:26.075Z,11.00
2023-04-09T09:27:54.830Z,11.10
2023-04-09T09:30:28.752Z,11.60
2023-04-09T09:33:08.489Z,12.60
2023-04-09T09:35:54.646Z,11.80
2023-04-09T09:38:23.169Z,11.30
2023-04-09T09:40:52.482Z,13.00
2023-04-09T09:43:20.718Z,12.70
2023-04-09T09:45:48.882Z,12.20
2023-04-09T09:48:16.931Z,12.90
2023-04-09T09:50:46.899Z,12.70
2023-04-09T09:53:22.743Z,12.30
2023-04-09T09:55:54.472Z,11.60
2023-04-09T09:58:38.722Z,12.10
2023-04-09T10:01:13.997Z,10.90
2023-04-09T10:03:44.440Z,11.20
2023-04-09T10:06:14.626Z,11.30
2023-04-09T10:08:43.171Z,12.50
2023-04-09T10:11:12.537Z,12.30
2023-04-09T10:13:49.609Z,12.90
2023-04-09T10:16:19.179Z,13.00
2023-04-09T10:18:47.433Z,13.00
2023-04-09T10:21:27.659Z,11.50
2023-04-09T10:23:55.737Z,12.30
2023-04-09T10:26:27.833Z,14.50
2023-04-09T10:29:07.030Z,15.90
2023-04-09T10:32:07.138Z,15.80
2023-04-09T10:34:39.412Z,16.80
2023-04-09T10:37:17.140Z,18.80
2023-04-09T10:39:47.518Z,15.80
2023-04-09T10:42:21.645Z,16.60
2023-04-09T10:45:04.908Z,15.50
2023-04-09T10:47:35.933Z,15.20
2023-04-09T10:50:26.715Z,15.10
2023-04-09T10:53:00.377Z,16.10
2023-04-09T10:55:41.843Z,15.60
2023-04-09T10:58:13.662Z,16.80
2023-04-09T11:00:49.590Z,17.90
2023-04-09T11:03:29.271Z,15.90
2023-04-09T11:06:11.225Z,14.80
2023-04-09T11:08:39.387Z,15.30
2023-04-09T11:11:07.348Z,17.70
2023-04-09T11:13:35.376Z,16.80
2023-04-09T11:16:07.157Z,15.00
2023-04-09T11:18:37.235Z,14.50
2023-04-09T11:21:06.033Z,14.30
2023-04-09T11:23:34.414Z,13.70
2023-04-09T11:26:02.869Z,14.30
2023-04-09T11:28:31.230Z,13.20
2023-04-09T11:30:59.204Z,13.40
2023-04-09T11:33:34.521Z,13.70
2023-04-09T11:36:05.759Z,13.60
2023-04-09T11:38:33.704Z,13.40
2023-04-09T11:41:02.173Z,13.60
2023-04-09T11:43:30.249Z,12.90
2023-04-09T11:45:59.456Z,13.40
2023-04-09T11:48:27.974Z,13.80
2023-04-09T11:50:57.156Z,14.30
2023-04-09T11:53:31.040Z,13.50
2023-04-09T11:55:59.232Z,12.80
2023-04-09T11:58:28.135Z,13.10
2023-04-09T12:00:58.820Z,13.10
2023-04-09T12:06:04.034Z,13.00
2023-04-09T12:08:35.134Z,12.60
2023-04-09T12:11:14.930Z,13.30
2023-04-09T12:13:45.831Z,13.60
2023-04-09T12:16:14.757Z,13.90
2023-04-09T12:18:43.065Z,12.20
2023-04-09T12:21:11.363Z,12.80
2023-04-09T12:23:39.430Z,12.20
2023-04-09T12:26:07.846Z,12.90
2023-04-09T12:28:35.875Z,12.90
2023-04-09T12:31:03.923Z,13.10
2023-04-09T12:33:32.477Z,13.20
2023-04-09T12:36:00.706Z,12.60
2023-04-09T12:38:28.765Z,13.20
2023-04-09T12:40:56.630Z,13.10
2023-04-09T12:43:24.619Z,13.50
2023-04-09T12:45:53.314Z,13.00
2023-04-09T12:48:21.501Z,13.40
2023-04-09T12:50:49.600Z,12.70
2023-04-09T12:53:17.575Z,14.20
2023-04-09T12:55:45.659Z,13.80
2023-04-09T12:58:13.801Z,13.70
2023-04-09T13:00:41.903Z,14.60
2023-04-09T13:03:10.009Z,13.80
2023-04-09T13:05:38.419Z,14.00
2023-04-09T13:08:06.834Z,14.70
2023-04-09T13:10:34.924Z,13.90
2023-04-09T13:13:03.542Z,13.00
2023-04-09T13:15:31.638Z,13.60
2023-04-09T13:17:59.795Z,13.70
2023-04-09T13:20:27.851Z,13.70
2023-04-09T13:22:58.992Z,13.70
2023-04-09T13:25:27.005Z,13.70
2023-04-09T13:27:55.090Z,14.00
2023-04-09T13:30:23.319Z,13.30
2023-04-09T13:32:51.392Z,12.90
2023-04-09T13:35:19.433Z,12.90
2023-04-09T13:37:47.396Z,12.60
2023-04-09T13:40:16.384Z,11.80
2023-04-09T13:42:44.319Z,13.80
2023-04-09T13:45:12.209Z,13.80
2023-04-09T13:47:40.482Z,13.40
2023-04-09T13:50:10.435Z,13.10
2023-04-09T13:52:38.873Z,13.20
2023-04-09T13:55:08.042Z,13.20
2023-04-09T13:57:36.399Z,12.40
2023-04-09T14:00:05.951Z,12.20
2023-04-09T14:02:34.545Z,12.90
2023-04-09T14:05:03.960Z,12.80
2023-04-09T14:07:32.298Z,12.80
2023-04-09T14:10:00.211Z,12.70
2023-04-09T14:12:28.141Z,12.10
2023-04-09T14:14:56.125Z,12.50
2023-04-09T14:17:24.091Z,11.70
2023-04-09T14:19:52.071Z,13.20
2023-04-09T14:22:20.040Z,12.10
2023-04-09T14:24:48.013Z,11.40
2023-04-09T14:27:16.014Z,12.60
2023-04-09T14:29:43.955Z,12.60
2023-04-09T14:32:12.275Z,12.80
2023-04-09T14:34:40.397Z,12.10
2023-04-09T14:37:08.685Z,12.20
2023-04-09T14:39:36.635Z,11.50
2023-04-09T14:42:04.569Z,11.70
2023-04-09T14:44:33.042Z,11.70
2023-04-09T14:47:01.142Z,12.30
2023-04-09T14:49:29.122Z,11.40
2023-04-09T14:51:57.155Z,12.20
2023-04-09T14:54:25.248Z,12.10
2023-04-09T14:56:53.112Z,12.00
2023-04-09T14:59:21.040Z,11.00
2023-04-09T15:01:49.063Z,12.10
2023-04-09T15:04:17.391Z,12.20
2023-04-09T15:06:45.539Z,11.90
2023-04-09T15:09:14.307Z,12.00
2023-04-09T15:11:42.232Z,11.50
2023-04-09T15:14:10.472Z,12.00
2023-04-09T15:16:38.691Z,12.70
2023-04-09T15:19:07.457Z,12.80
2023-04-09T15:21:35.627Z,12.00
2023-04-09T15:24:03.865Z,11.80
2023-04-09T15:26:33.546Z,12.10
2023-04-09T15:29:04.230Z,11.60
2023-04-09T15:31:33.418Z,12.60
2023-04-09T15:34:01.382Z,12.90
2023-04-09T15:36:31.040Z,12.60
2023-04-09T15:38:59.040Z,12.30
2023-04-09T15:41:27.103Z,12.50
2023-04-09T15:43:55.246Z,13.80
2023-04-09T15:46:23.309Z,12.00
2023-04-09T15:48:51.450Z,12.10
2023-04-09T15:51:20.793Z,11.50
2023-04-09T15:53:48.856Z,12.40
2023-04-09T15:56:16.926Z,16.60
2023-04-09T15:58:44.918Z,14.60
2023-04-09T16:01:12.896Z,13.90
2023-04-09T16:03:41.469Z,12.30
2023-04-09T16:06:13.422Z,11.60
2023-04-09T16:08:41.809Z,12.60
2023-04-09T16:11:10.620Z,12.30
2023-04-09T16:13:38.628Z,11.20
2023-04-09T16:16:07.581Z,13.10
2023-04-09T16:18:36.043Z,14.40
2023-04-09T16:21:04.436Z,14.20
2023-04-09T16:23:33.103Z,13.40
2023-04-09T16:26:01.179Z,14.10
2023-04-09T16:28:29.111Z,12.90
2023-04-09T16:30:57.107Z,12.20
2023-04-09T16:33:25.274Z,14.00
2023-04-09T16:35:53.818Z,13.60
2023-04-09T16:38:23.794Z,14.70
2023-04-09T16:40:51.870Z,14.10
2023-04-09T16:43:20.349Z,14.60
2023-04-09T16:45:48.676Z,14.40
2023-04-09T16:48:19.618Z,15.20
2023-04-09T16:50:47.794Z,15.10
2023-04-09T16:53:16.114Z,13.60
2023-04-09T16:55:44.967Z,13.70
2023-04-09T16:58:12.921Z,16.40
2023-04-09T17:00:40.868Z,14.70
2023-04-09T17:03:09.185Z,16.20
2023-04-09T17:05:38.034Z,14.70
2023-04-09T17:08:06.912Z,14.30
2023-04-09T17:10:37.192Z,14.00
2023-04-09T17:13:07.278Z,13.90
2023-04-09T17:15:36.434Z,14.80
2023-04-09T17:18:04.566Z,14.50
2023-04-09T17:20:32.467Z,15.90
2023-04-09T17:23:00.905Z,15.90
2023-04-09T17:25:29.492Z,16.60
2023-04-09T17:27:57.966Z,18.50
2023-04-09T17:30:26.156Z,17.50
2023-04-09T17:32:54.251Z,17.40
2023-04-09T17:35:22.590Z,17.20
2023-04-09T17:37:50.961Z,18.00
2023-04-09T17:40:20.209Z,18.20
2023-04-09T17:42:49.195Z,17.80
2023-04-09T17:45:17.162Z,16.30
2023-04-09T17:47:45.797Z,16.60
2023-04-09T17:50:13.937Z,17.50
2023-04-09T17:52:42.096Z,16.20
2023-04-09T17:55:14.907Z,16.60
2023-04-09T17:57:43.030Z,17.00
2023-04-09T18:00:11.606Z,16.40
2023-04-09T18:02:47.086Z,16.80
2023-04-09T18:05:15.625Z,16.30
2023-04-09T18:07:43.730Z,17.40
2023-04-09T18:10:11.841Z,18.70
2023-04-09T18:12:39.890Z,18.80
2023-04-09T18:15:08.214Z,18.80
2023-04-09T18:17:36.355Z,17.10
2023-04-09T18:20:04.847Z,17.00
2023-04-09T18:22:35.811Z,16.60
2023-04-09T18:25:04.344Z,16.00
2023-04-09T18:27:32.350Z,16.20
2023-04-09T18:30:00.441Z,16.90
2023-04-09T18:32:30.686Z,16.50
2023-04-09T18:34:58.647Z,16.80
2023-04-09T18:37:26.908Z,17.20
2023-04-09T18:39:55.269Z,18.00
2023-04-09T18:42:26.252Z,18.50
2023-04-09T18:44:54.196Z,20.70
2023-04-09T18:47:22.182Z,19.70
2023-04-09T18:49:52.459Z,19.00
2023-04-09T18:52:20.507Z,19.70
2023-04-09T18:54:48.517Z,23.30
2023-04-09T18:57:16.981Z,24.70
2023-04-09T18:59:46.833Z,26.30
2023-04-09T19:02:14.956Z,24.80
2023-04-09T19:04:45.276Z,23.00
2023-04-09T19:07:13.768Z,23.00
2023-04-09T19:09:42.214Z,24.10
2023-04-09T19:12:24.270Z,21.90
2023-04-09T19:14:53.018Z,23.60
2023-04-09T19:17:27.765Z,24.60
2023-04-09T19:20:03.130Z,23.90
2023-04-09T19:22:31.347Z,22.70
2023-04-09T19:24:59.297Z,24.10
2023-04-09T19:27:27.167Z,24.00
2023-04-09T19:29:56.244Z,22.60
2023-04-09T19:32:24.241Z,21.90
2023-04-09T19:34:52.201Z,21.30
2023-04-09T19:37:20.696Z,21.70
2023-04-09T19:39:49.371Z,20.40
2023-04-09T19:42:17.288Z,22.10
2023-04-09T19:44:45.473Z,22.40
2023-04-09T19:47:14.116Z,21.90
2023-04-09T19:49:42.822Z,21.10
2023-04-09T19:52:10.899Z,23.60
2023-04-09T19:54:38.974Z,23.10
2023-04-09T19:57:07.275Z,23.60
2023-04-09T19:59:37.559Z,21.30
2023-04-09T20:02:06.911Z,22.60
2023-04-09T20:04:34.951Z,20.30
2023-04-09T20:07:04.350Z,18.50
2023-04-09T20:09:32.735Z,19.40
2023-04-09T20:12:04.435Z,20.20
2023-04-09T20:14:32.571Z,18.90
2023-04-09T20:17:00.897Z,20.50
2023-04-09T20:19:29.274Z,18.80
2023-04-09T20:21:57.455Z,21.10
2023-04-09T20:24:27.050Z,19.90
2023-04-09T20:26:56.402Z,19.70
2023-04-09T20:29:24.700Z,20.60
2023-04-09T20:31:52.801Z,22.60
2023-04-09T20:34:26.571Z,23.00
2023-04-09T20:36:55.662Z,23.60
2023-04-09T20:39:27.166Z,32.50
2023-04-09T20:41:56.772Z,31.50
2023-04-09T20:44:26.925Z,29.80
2023-04-09T20:46:55.486Z,32.90
2023-04-09T20:49:24.113Z,33.30
2023-04-09T20:51:52.144Z,36.60
2023-04-09T20:54:22.591Z,36.20
2023-04-09T20:56:52.522Z,39.30
2023-04-09T20:59:20.634Z,38.50
2023-04-09T21:01:49.141Z,37.00
2023-04-09T21:04:18.062Z,34.90
2023-04-09T21:06:46.381Z,26.30
2023-04-09T21:09:14.375Z,26.10
2023-04-09T21:11:42.331Z,24.30
2023-04-09T21:14:12.900Z,23.70
2023-04-09T21:16:41.419Z,25.60
2023-04-09T21:19:09.481Z,25.00
2023-04-09T21:21:37.915Z,24.90
2023-04-09T21:24:05.830Z,24.20
2023-04-09T21:26:49.371Z,24.40
2023-04-09T21:29:21.353Z,24.60
2023-04-09T21:31:50.107Z,25.00
2023-04-09T21:34:18.159Z,25.70
2023-04-09T21:36:46.645Z,25.20
2023-04-09T21:39:14.710Z,26.30
2023-04-09T21:41:42.663Z,26.80
2023-04-09T21:44:10.610Z,28.40
2023-04-09T21:46:40.875Z,30.40
2023-04-09T21:49:09.881Z,29.10
2023-04-09T21:51:38.891Z,32.40
2023-04-09T21:54:09.005Z,31.00
2023-04-09T21:56:37.263Z,31.40
2023-04-09T21:59:05.722Z,32.50
2023-04-09T22:01:35.115Z,31.70
2023-04-09T22:04:04.141Z,31.80
2023-04-09T22:06:32.496Z,32.70
2023-04-09T22:09:01.140Z,33.10
2023-04-09T22:11:29.772Z,33.30
2023-04-09T22:13:57.929Z,35.10
2023-04-09T22:16:26.371Z,33.70
2023-04-09T22:18:55.120Z,32.40
2023-04-09T22:21:23.599Z,32.20
2023-04-09T22:23:51.615Z,32.70
2023-04-09T22:26:20.060Z,31.30
2023-04-09T22:28:48.131Z,28.10
2023-04-09T22:31:16.962Z,30.80
2023-04-09T22:33:45.006Z,28.50
2023-04-09T22:36:13.036Z,28.10
2023-04-09T22:38:41.170Z,27.90
2023-04-09T22:41:09.156Z,27.80
2023-04-09T22:43:37.173Z,25.90
2023-04-09T22:46:06.097Z,26.30
2023-04-09T22:48:40.825Z,28.50
2023-04-09T22:51:13.793Z,26.60
2023-04-09T22:53:42.077Z,27.90
2023-04-09T22:56:10.176Z,27.40
2023-04-09T22:58:38.328Z,27.40
2023-04-09T23:01:06.729Z,28.00
2023-04-09T23:03:35.221Z,26.20
2023-04-09T23:06:03.353Z,26.60
2023-04-09T23:08:31.445Z,26.70
2023-04-09T23:10:59.506Z,27.40
2023-04-09T23:13:27.553Z,27.70
2023-04-09T23:15:55.926Z,27.10
2023-04-09T23:18:23.966Z,26.80
2023-04-09T23:20:51.931Z,26.50
2023-04-09T23:23:19.812Z,26.60
2023-04-09T23:25:47.925Z,27.30
2023-04-09T23:28:15.967Z,28.20
2023-04-09T23:30:44.261Z,25.90
2023-04-09T23:33:12.401Z,26.80
2023-04-09T23:35:41.018Z,27.10
2023-04-09T23:38:08.975Z,27.30
2023-04-09T23:40:36.925Z,27.90
2023-04-09T23:43:04.771Z,27.50
2023-04-09T23:45:32.729Z,24.90
2023-04-09T23:48:00.799Z,26.30
2023-04-09T23:50:28.921Z,24.60
2023-04-09T23:53:03.493Z,25.20
2023-04-09T23:55:33.346Z,23.80
2023-04-09T23:58:01.673Z,27.10
